Time;durP1;ratioP1;P1;durP2;ratioP2;P2;SDS_P1;SDS_P2;PMS_P1;PMS_P2;Temp;Humidity;BMP_temperature;BMP_pressure;BME280_temperature;BME280_humidity;BME280_pressure;Samples;Min_cycle;Max_cycle;Signal;HPM_P1;HPM_P2
2021/08/08 00:01:40;;;;;;;;;2.00;2.00;;;;;;;;3559950;39;112534;-84
2021/08/08 00:04:06;;;;;;;;;3.00;3.00;;;;;;;;3559037;39;113712;-85
2021/08/08 00:06:33;;;;;;;;;2.33;2.00;;;;;;;;3561642;39;111830;-85
2021/08/08 00:09:00;;;;;;;;;3.00;3.00;;;;;;;;3559613;39;113247;-85
2021/08/08 00:11:26;;;;;;;;;3.00;3.00;;;;;;;;3558873;39;113817;-85
2021/08/08 00:13:54;;;;;;;;;4.00;3.00;;;;;;;;3558151;39;111911;-85
2021/08/08 00:16:21;;;;;;;;;4.00;3.00;;;;;;;;3559980;39;113282;-84
2021/08/08 00:18:47;;;;;;;;;2.33;2.33;;;;;;;;3557385;39;114062;-84
2021/08/08 00:21:14;;;;;;;;;4.00;4.00;;;;;;;;3558233;39;111862;-85
2021/08/08 00:23:40;;;;;;;;;4.67;3.00;;;;;;;;3558453;39;113318;-87
2021/08/08 00:26:07;;;;;;;;;3.67;3.00;;;;;;;;3562413;39;113899;-88
2021/08/08 00:28:33;;;;;;;;;2.67;2.67;;;;;;;;3559403;39;113273;-89
2021/08/08 00:31:01;;;;;;;;;3.33;3.33;;;;;;;;3559250;39;113828;-87
2021/08/08 00:33:28;;;;;;;;;3.00;3.00;;;;;;;;3559850;39;112029;-88
2021/08/08 00:35:55;;;;;;;;;3.00;2.00;;;;;;;;3558932;39;113579;-88
2021/08/08 00:38:21;;;;;;;;;2.00;2.00;;;;;;;;3559550;39;114236;-87
2021/08/08 00:40:48;;;;;;;;;2.00;2.00;;;;;;;;3559363;39;112032;-88
2021/08/08 00:43:14;;;;;;;;;2.00;2.00;;;;;;;;3560554;39;113229;-87
2021/08/08 00:45:41;;;;;;;;;4.00;4.00;;;;;;;;3559936;39;114475;-87
2021/08/08 00:48:09;;;;;;;;;3.67;2.67;;;;;;;;3561607;39;112676;-87
2021/08/08 00:50:36;;;;;;;;;3.00;3.00;;;;;;;;3559323;39;114142;-87
2021/08/08 00:53:03;;;;;;;;;3.00;3.00;;;;;;;;3558962;39;113118;-86
2021/08/08 00:55:30;;;;;;;;;2.00;2.00;;;;;;;;3559510;39;113267;-87
2021/08/08 00:57:56;;;;;;;;;6.00;3.00;;;;;;;;3558941;39;114169;-87
2021/08/08 01:00:23;;;;;;;;;3.00;3.00;;;;;;;;3558835;39;112603;-87
2021/08/08 01:02:50;;;;;;;;;3.67;3.00;;;;;;;;3559606;39;113267;-87
2021/08/08 01:05:22;;;;;;;;;2.67;2.67;;;;;;;;3558019;39;113816;-88
2021/08/08 01:07:49;;;;;;;;;3.00;2.00;;;;;;;;3558389;39;112051;-87
2021/08/08 01:10:16;;;;;;;;;4.00;3.00;;;;;;;;3562526;39;112265;-87
2021/08/08 01:12:43;;;;;;;;;2.00;2.00;;;;;;;;3558317;39;112416;-88
2021/08/08 01:15:10;;;;;;;;;3.33;3.00;;;;;;;;3560203;39;113502;-88
2021/08/08 01:17:41;;;;;;;;;3.33;3.33;;;;;;;;3558259;39;114105;-89
2021/08/08 01:20:08;;;;;;;;;4.67;3.00;;;;;;;;3561082;39;112780;-88
2021/08/08 01:22:38;;;;;;;;;3.00;2.67;;;;;;;;3559537;39;113839;-88
2021/08/08 01:25:07;;;;;;;;;3.00;3.00;;;;;;;;3560193;39;113862;-90
2021/08/08 01:27:34;;;;;;;;;3.00;3.00;;;;;;;;3560196;39;111961;-89
2021/08/08 01:30:01;;;;;;;;;5.00;4.00;;;;;;;;3558822;39;113503;-89
2021/08/08 01:32:29;;;;;;;;;5.00;4.00;;;;;;;;3562500;39;113756;-90
2021/08/08 01:34:56;;;;;;;;;5.00;5.00;;;;;;;;3560395;39;113506;-89
2021/08/08 01:37:22;;;;;;;;;7.00;5.00;;;;;;;;3558118;39;114161;-89
2021/08/08 01:39:52;;;;;;;;;4.67;3.67;;;;;;;;3560216;39;112034;-89
2021/08/08 01:42:20;;;;;;;;;4.00;2.67;;;;;;;;3560022;39;113378;-89
2021/08/08 01:44:49;;;;;;;;;2.00;2.00;;;;;;;;3560027;39;114318;-89
2021/08/08 01:47:17;;;;;;;;;2.00;2.00;;;;;;;;3559430;39;112370;-88
2021/08/08 01:49:45;;;;;;;;;2.67;2.33;;;;;;;;3560314;39;113256;-89
2021/08/08 01:52:12;;;;;;;;;4.67;2.67;;;;;;;;3559839;39;113985;-89
2021/08/08 01:54:39;;;;;;;;;5.67;5.00;;;;;;;;3560887;39;111873;-89
2021/08/08 01:57:08;;;;;;;;;5.67;4.67;;;;;;;;3561400;39;113886;-88
2021/08/08 01:59:36;;;;;;;;;7.00;3.33;;;;;;;;3562620;39;111830;-86
2021/08/08 02:02:08;;;;;;;;;5.33;5.00;;;;;;;;3562449;39;113859;-88
2021/08/08 02:04:35;;;;;;;;;3.00;3.00;;;;;;;;3562837;39;114102;-88
2021/08/08 02:07:02;;;;;;;;;5.67;4.00;;;;;;;;3562683;39;111931;-88
2021/08/08 02:09:29;;;;;;;;;3.00;3.00;;;;;;;;3563539;39;113393;-87
2021/08/08 02:11:55;;;;;;;;;4.00;4.00;;;;;;;;3564341;39;112937;-87
2021/08/08 02:14:22;;;;;;;;;3.00;3.00;;;;;;;;3566339;39;111788;-88
2021/08/08 02:16:50;;;;;;;;;3.00;3.00;;;;;;;;3560221;39;113766;-88
2021/08/08 02:19:16;;;;;;;;;5.00;3.33;;;;;;;;3557220;39;111882;-88
2021/08/08 02:21:45;;;;;;;;;4.00;2.33;;;;;;;;3559918;39;113336;-88
2021/08/08 02:24:11;;;;;;;;;4.33;4.00;;;;;;;;3557455;39;113922;-88
2021/08/08 02:26:38;;;;;;;;;3.00;3.00;;;;;;;;3559904;39;111872;-88
2021/08/08 02:29:08;;;;;;;;;2.67;2.33;;;;;;;;3559983;39;113216;-88
2021/08/08 02:31:36;;;;;;;;;3.33;3.00;;;;;;;;3557494;39;113933;-88
2021/08/08 02:34:04;;;;;;;;;3.00;3.00;;;;;;;;3558352;39;111797;-87
2021/08/08 02:36:30;;;;;;;;;3.67;3.67;;;;;;;;3560750;39;113671;-87
2021/08/08 02:38:57;;;;;;;;;3.00;3.00;;;;;;;;3558662;39;111774;-88
2021/08/08 02:41:23;;;;;;;;;4.00;3.33;;;;;;;;3558558;39;113270;-88
2021/08/08 02:43:50;;;;;;;;;3.67;3.67;;;;;;;;3559659;39;114381;-87
2021/08/08 02:46:17;;;;;;;;;4.00;4.00;;;;;;;;3559633;39;112263;-88
2021/08/08 02:48:43;;;;;;;;;4.00;4.00;;;;;;;;3561648;39;113239;-87
2021/08/08 02:51:11;;;;;;;;;3.00;2.00;;;;;;;;3561247;39;113864;-88
2021/08/08 02:53:38;;;;;;;;;2.33;2.33;;;;;;;;3561032;39;111886;-88
2021/08/08 02:56:05;;;;;;;;;3.33;2.00;;;;;;;;3561089;39;113472;-88
2021/08/08 02:58:31;;;;;;;;;3.33;2.33;;;;;;;;3562153;39;113962;-88
2021/08/08 03:00:58;;;;;;;;;6.00;3.67;;;;;;;;3559777;39;113928;-87
2021/08/08 03:03:24;;;;;;;;;4.00;3.33;;;;;;;;3559323;39;113950;-88
2021/08/08 03:05:51;;;;;;;;;3.67;3.00;;;;;;;;3562393;39;112302;-87
2021/08/08 03:08:19;;;;;;;;;4.00;3.00;;;;;;;;3559015;39;113295;-88
2021/08/08 03:10:46;;;;;;;;;2.33;2.33;;;;;;;;3558546;39;114351;-88
2021/08/08 03:13:12;;;;;;;;;4.33;3.00;;;;;;;;3560776;39;112151;-86
2021/08/08 03:15:39;;;;;;;;;4.00;4.00;;;;;;;;3559008;39;113142;-87
2021/08/08 03:18:07;;;;;;;;;3.00;3.00;;;;;;;;3559947;39;114162;-84
2021/08/08 03:20:33;;;;;;;;;3.00;3.00;;;;;;;;3558522;39;112785;-83
2021/08/08 03:23:00;;;;;;;;;3.00;3.00;;;;;;;;3559571;39;113957;-83
2021/08/08 03:25:28;;;;;;;;;3.67;3.67;;;;;;;;3564030;39;111945;-83
2021/08/08 03:27:54;;;;;;;;;3.67;3.00;;;;;;;;3568071;39;112861;-84
2021/08/08 03:30:24;;;;;;;;;4.67;4.67;;;;;;;;3565560;39;114145;-84
2021/08/08 03:32:53;;;;;;;;;4.00;3.00;;;;;;;;3565016;39;112551;-84
2021/08/08 03:35:20;;;;;;;;;4.00;2.00;;;;;;;;3564413;39;113067;-84
2021/08/08 03:37:46;;;;;;;;;3.67;3.00;;;;;;;;3564411;39;112821;-85
2021/08/08 03:40:15;;;;;;;;;2.33;2.33;;;;;;;;3565732;39;111961;-85
2021/08/08 03:42:43;;;;;;;;;3.00;3.00;;;;;;;;3566348;39;112246;-85
2021/08/08 03:45:10;;;;;;;;;3.67;2.67;;;;;;;;3559504;39;111989;-86
2021/08/08 03:47:36;;;;;;;;;3.00;3.00;;;;;;;;3560357;39;113251;-84
2021/08/08 03:50:03;;;;;;;;;4.00;3.33;;;;;;;;3560112;39;113889;-84
2021/08/08 03:52:30;;;;;;;;;2.67;2.00;;;;;;;;3559315;39;111968;-84
2021/08/08 03:54:56;;;;;;;;;3.33;3.00;;;;;;;;3559737;39;113271;-84
2021/08/08 03:57:23;;;;;;;;;3.00;3.00;;;;;;;;3559398;39;114234;-85
2021/08/08 03:59:51;;;;;;;;;2.00;2.00;;;;;;;;3559811;39;113069;-85
2021/08/08 04:02:17;;;;;;;;;3.00;3.00;;;;;;;;3566142;39;113134;-85
2021/08/08 04:04:44;;;;;;;;;3.00;2.00;;;;;;;;3570652;39;112811;-84
2021/08/08 04:07:10;;;;;;;;;4.00;3.00;;;;;;;;3570347;39;113760;-84
2021/08/08 04:09:37;;;;;;;;;3.00;3.00;;;;;;;;3563885;39;113903;-84
2021/08/08 04:12:05;;;;;;;;;3.33;3.00;;;;;;;;3558768;39;111902;-83
2021/08/08 04:14:32;;;;;;;;;6.00;3.00;;;;;;;;3559948;39;113585;-83
2021/08/08 04:17:03;;;;;;;;;2.00;2.00;;;;;;;;3558886;39;113911;-83
2021/08/08 04:19:29;;;;;;;;;3.33;3.00;;;;;;;;3559066;39;112013;-84
2021/08/08 04:21:56;;;;;;;;;4.00;3.67;;;;;;;;3559474;39;113443;-84
2021/08/08 04:24:23;;;;;;;;;2.67;2.67;;;;;;;;3562349;39;114282;-84
2021/08/08 04:26:49;;;;;;;;;2.00;2.00;;;;;;;;3559815;39;113610;-84
2021/08/08 04:29:16;;;;;;;;;4.00;3.33;;;;;;;;3557989;39;113803;-84
2021/08/08 04:31:42;;;;;;;;;5.00;5.00;;;;;;;;3560094;39;111834;-83
2021/08/08 04:34:10;;;;;;;;;4.33;3.67;;;;;;;;3558076;39;113120;-83
2021/08/08 04:36:37;;;;;;;;;4.00;4.00;;;;;;;;3557949;39;114222;-84
2021/08/08 04:39:03;;;;;;;;;4.00;4.00;;;;;;;;3559717;39;112648;-84
2021/08/08 04:41:30;;;;;;;;;3.67;3.33;;;;;;;;3554333;39;112528;-84
2021/08/08 04:43:57;;;;;;;;;4.33;4.00;;;;;;;;3558926;39;114001;-83
2021/08/08 04:46:23;;;;;;;;;5.00;4.00;;;;;;;;3562788;39;112707;-83
2021/08/08 04:48:50;;;;;;;;;4.00;4.00;;;;;;;;3559259;39;114373;-83
2021/08/08 04:51:18;;;;;;;;;6.00;4.00;;;;;;;;3560384;39;112383;-84
2021/08/08 04:53:44;;;;;;;;;5.00;4.00;;;;;;;;3558280;39;113455;-83
2021/08/08 04:56:11;;;;;;;;;4.33;3.00;;;;;;;;3559794;39;114327;-84
2021/08/08 04:58:37;;;;;;;;;2.00;2.00;;;;;;;;3558480;39;111981;-77
2021/08/08 05:01:04;;;;;;;;;3.00;3.00;;;;;;;;3559650;39;113073;-77
2021/08/08 05:03:30;;;;;;;;;1.00;1.00;;;;;;;;3559697;39;113813;-79
2021/08/08 05:05:57;;;;;;;;;4.00;3.00;;;;;;;;3558891;39;111909;-76
2021/08/08 05:08:25;;;;;;;;;3.00;3.00;;;;;;;;3561245;39;114079;-78
2021/08/08 05:10:54;;;;;;;;;3.33;3.33;;;;;;;;3559555;39;111938;-78
2021/08/08 05:13:20;;;;;;;;;5.00;5.00;;;;;;;;3558576;39;114028;-77
2021/08/08 05:15:47;;;;;;;;;3.00;3.00;;;;;;;;3558942;39;113965;-76
2021/08/08 05:18:14;;;;;;;;;4.00;4.00;;;;;;;;3558273;39;112522;-77
2021/08/08 05:20:40;;;;;;;;;5.00;5.00;;;;;;;;3560113;39;113483;-77
2021/08/08 05:23:07;;;;;;;;;4.33;3.00;;;;;;;;3557942;39;113867;-79
2021/08/08 05:25:35;;;;;;;;;4.00;4.00;;;;;;;;3559626;39;113340;-81
2021/08/08 05:28:01;;;;;;;;;5.00;5.00;;;;;;;;3558457;39;113249;-82
2021/08/08 05:30:28;;;;;;;;;3.00;3.00;;;;;;;;3556385;39;113187;-84
2021/08/08 05:32:55;;;;;;;;;3.00;3.00;;;;;;;;3558569;39;114006;-83
2021/08/08 05:35:21;;;;;;;;;4.00;4.00;;;;;;;;3558002;39;114016;-78
2021/08/08 05:37:48;;;;;;;;;5.00;5.00;;;;;;;;3560374;39;111901;-78
2021/08/08 05:40:14;;;;;;;;;5.00;4.00;;;;;;;;3556737;39;113380;-78
2021/08/08 05:42:48;;;;;;;;;5.00;4.67;;;;;;;;3558313;39;113818;-77
2021/08/08 05:45:15;;;;;;;;;5.00;5.00;;;;;;;;3558718;39;111893;-79
2021/08/08 05:47:41;;;;;;;;;4.67;4.00;;;;;;;;3558445;39;113365;-79
2021/08/08 05:50:08;;;;;;;;;4.33;4.00;;;;;;;;3558353;39;113707;-80
2021/08/08 05:52:35;;;;;;;;;6.00;5.00;;;;;;;;3562331;39;112205;-80
2021/08/08 05:55:01;;;;;;;;;5.00;5.00;;;;;;;;3558791;39;113889;-77
2021/08/08 05:57:28;;;;;;;;;5.00;5.00;;;;;;;;3559243;39;112000;-79
2021/08/08 05:59:56;;;;;;;;;6.00;6.00;;;;;;;;3557534;39;113121;-79
2021/08/08 06:02:22;;;;;;;;;7.00;4.67;;;;;;;;3558387;39;113925;-79
2021/08/08 06:04:49;;;;;;;;;6.67;6.33;;;;;;;;3558132;39;112558;-80
2021/08/08 06:07:16;;;;;;;;;7.00;6.00;;;;;;;;3560290;39;113168;-80
2021/08/08 06:09:42;;;;;;;;;5.33;4.67;;;;;;;;3556740;39;113869;-80
2021/08/08 06:12:10;;;;;;;;;7.00;5.67;;;;;;;;3556622;39;113160;-78
2021/08/08 06:14:36;;;;;;;;;6.33;5.33;;;;;;;;3562587;39;113255;-78
2021/08/08 06:17:06;;;;;;;;;6.00;6.00;;;;;;;;3559582;39;112304;-79
2021/08/08 06:19:32;;;;;;;;;7.00;6.00;;;;;;;;3552132;39;112583;-78
2021/08/08 06:21:59;;;;;;;;;6.00;6.00;;;;;;;;3557127;39;114063;-78
2021/08/08 06:24:26;;;;;;;;;5.00;5.00;;;;;;;;3558953;39;112109;-78
2021/08/08 06:26:52;;;;;;;;;7.67;6.00;;;;;;;;3555774;39;112547;-78
2021/08/08 06:29:19;;;;;;;;;5.00;5.00;;;;;;;;3559721;39;113950;-76
2021/08/08 06:31:45;;;;;;;;;5.00;5.00;;;;;;;;3558576;39;112015;-77
2021/08/08 06:34:13;;;;;;;;;5.33;5.00;;;;;;;;3558216;39;113512;-77
2021/08/08 06:36:40;;;;;;;;;5.00;5.00;;;;;;;;3556055;39;111824;-78
2021/08/08 06:39:08;;;;;;;;;5.33;4.00;;;;;;;;3556565;39;113300;-77
2021/08/08 06:41:35;;;;;;;;;7.00;5.00;;;;;;;;3555117;39;114308;-79
2021/08/08 06:44:02;;;;;;;;;5.00;5.00;;;;;;;;3559567;39;113146;-78
2021/08/08 06:46:28;;;;;;;;;5.00;5.00;;;;;;;;3555970;39;114159;-77
2021/08/08 06:48:55;;;;;;;;;7.00;5.00;;;;;;;;3556295;39;114448;-78
2021/08/08 06:51:23;;;;;;;;;5.00;4.00;;;;;;;;3556140;39;111850;-77
2021/08/08 06:53:50;;;;;;;;;4.67;4.67;;;;;;;;3560237;39;113422;-77
2021/08/08 06:56:16;;;;;;;;;6.00;3.67;;;;;;;;3558086;39;113997;-78
2021/08/08 06:58:43;;;;;;;;;6.00;4.00;;;;;;;;3557798;39;113287;-78
2021/08/08 07:01:09;;;;;;;;;6.00;4.33;;;;;;;;3557262;39;112953;-77
2021/08/08 07:03:36;;;;;;;;;4.00;4.00;;;;;;;;3556107;39;112014;-78
2021/08/08 07:06:02;;;;;;;;;4.33;4.00;;;;;;;;3559294;39;113445;-76
2021/08/08 07:08:30;;;;;;;;;5.33;4.00;;;;;;;;3558823;39;113853;-79
2021/08/08 07:10:57;;;;;;;;;5.33;5.33;;;;;;;;3560030;39;111819;-76
2021/08/08 07:13:23;;;;;;;;;5.33;5.33;;;;;;;;3559600;39;113428;-80
2021/08/08 07:15:50;;;;;;;;;6.00;5.00;;;;;;;;3559066;39;113876;-80
2021/08/08 07:18:16;;;;;;;;;6.00;5.00;;;;;;;;3563106;39;112969;-79
2021/08/08 07:20:43;;;;;;;;;6.33;5.33;;;;;;;;3560108;39;113865;-78
2021/08/08 07:23:10;;;;;;;;;7.00;6.00;;;;;;;;3558656;39;112041;-79
2021/08/08 07:25:37;;;;;;;;;6.00;6.00;;;;;;;;3560161;39;113412;-76
2021/08/08 07:28:04;;;;;;;;;8.00;7.00;;;;;;;;3557955;39;114531;-76
2021/08/08 07:30:32;;;;;;;;;8.00;7.00;;;;;;;;3560619;39;111780;-77
2021/08/08 07:32:59;;;;;;;;;7.00;6.00;;;;;;;;3558503;39;113304;-82
2021/08/08 07:35:26;;;;;;;;;6.33;6.33;;;;;;;;3561965;39;113928;-82
2021/08/08 07:37:53;;;;;;;;;9.00;9.00;;;;;;;;3559225;39;112294;-82
2021/08/08 07:40:19;;;;;;;;;5.00;5.00;;;;;;;;3564508;39;113363;-83
2021/08/08 07:42:51;;;;;;;;;8.67;8.00;;;;;;;;3562051;39;111845;-84
2021/08/08 07:45:18;;;;;;;;;7.00;7.00;;;;;;;;3560976;39;113297;-78
2021/08/08 07:47:45;;;;;;;;;10.67;9.00;;;;;;;;3561373;39;113838;-78
2021/08/08 07:50:12;;;;;;;;;8.33;8.33;;;;;;;;3562266;39;112453;-78
2021/08/08 07:52:42;;;;;;;;;10.00;10.00;;;;;;;;3560688;39;113388;-79
2021/08/08 07:55:09;;;;;;;;;6.67;6.67;;;;;;;;3561149;39;113428;-81
2021/08/08 07:57:36;;;;;;;;;11.33;9.33;;;;;;;;3561974;39;111874;-81
2021/08/08 08:00:05;;;;;;;;;8.00;7.67;;;;;;;;3561931;39;113587;-81
2021/08/08 08:02:31;;;;;;;;;8.00;7.00;;;;;;;;3564478;39;114041;-83
2021/08/08 08:04:58;;;;;;;;;7.33;6.00;;;;;;;;3558840;39;113577;-82
2021/08/08 08:07:24;;;;;;;;;8.00;8.00;;;;;;;;3561888;39;114348;-82
2021/08/08 08:09:51;;;;;;;;;7.00;6.00;;;;;;;;3561539;39;112014;-81
2021/08/08 08:12:17;;;;;;;;;7.00;7.00;;;;;;;;3558401;39;113341;-82
2021/08/08 08:14:44;;;;;;;;;7.00;7.00;;;;;;;;3559791;39;114559;-79
2021/08/08 08:17:12;;;;;;;;;8.33;7.67;;;;;;;;3558535;39;111892;-79
2021/08/08 08:19:39;;;;;;;;;8.00;8.00;;;;;;;;3558986;39;113402;-80
2021/08/08 08:22:05;;;;;;;;;11.33;8.33;;;;;;;;3556704;39;113878;-81
2021/08/08 08:24:32;;;;;;;;;9.00;8.67;;;;;;;;3561418;39;112159;-76
2021/08/08 08:26:58;;;;;;;;;7.00;6.33;;;;;;;;3555881;39;113876;-77
2021/08/08 08:29:25;;;;;;;;;9.33;8.00;;;;;;;;3558231;39;112168;-80
2021/08/08 08:31:51;;;;;;;;;8.00;6.33;;;;;;;;3557425;39;113902;-83
2021/08/08 08:34:19;;;;;;;;;7.33;5.67;;;;;;;;3557051;39;113915;-75
2021/08/08 08:36:46;;;;;;;;;4.33;4.00;;;;;;;;3560855;39;113447;-80
2021/08/08 08:39:12;;;;;;;;;11.67;9.00;;;;;;;;3557001;39;113627;-80
2021/08/08 08:41:40;;;;;;;;;7.00;7.00;;;;;;;;3559146;39;113932;-89
2021/08/08 08:44:07;;;;;;;;;8.67;8.67;;;;;;;;3559293;39;112897;-83
2021/08/08 08:46:34;;;;;;;;;6.00;6.00;;;;;;;;3561210;39;114438;-82
2021/08/08 08:49:01;;;;;;;;;8.67;8.00;;;;;;;;3557676;39;111898;-78
2021/08/08 08:51:31;;;;;;;;;9.33;9.33;;;;;;;;3558341;39;113726;-83
2021/08/08 08:54:00;;;;;;;;;9.00;8.00;;;;;;;;3558114;39;114134;-79
2021/08/08 08:56:27;;;;;;;;;7.33;7.33;;;;;;;;3558127;39;112472;-79
2021/08/08 08:58:57;;;;;;;;;9.00;8.00;;;;;;;;3557969;39;113177;-80
2021/08/08 09:01:24;;;;;;;;;9.67;8.67;;;;;;;;3557613;39;114244;-78
2021/08/08 09:03:50;;;;;;;;;8.00;7.67;;;;;;;;3557769;39;112576;-84
2021/08/08 09:06:17;;;;;;;;;9.00;7.33;;;;;;;;3560725;39;113567;-78
2021/08/08 09:08:45;;;;;;;;;5.33;5.33;;;;;;;;3557509;39;111863;-77
2021/08/08 09:11:11;;;;;;;;;7.00;7.00;;;;;;;;3559146;39;113437;-80
2021/08/08 09:13:48;;;;;;;;;9.00;7.00;;;;;;;;3556682;39;113871;-87
2021/08/08 09:16:15;;;;;;;;;6.00;6.00;;;;;;;;3559296;39;111863;-85
2021/08/08 09:18:48;;;;;;;;;7.00;6.00;;;;;;;;3557330;39;113496;-82
2021/08/08 09:21:14;;;;;;;;;7.33;6.00;;;;;;;;3556949;39;114051;-79
2021/08/08 09:23:41;;;;;;;;;6.33;5.00;;;;;;;;3558947;39;112032;-83
2021/08/08 09:26:09;;;;;;;;;7.00;7.00;;;;;;;;3557305;39;113262;-77
2021/08/08 09:28:36;;;;;;;;;6.67;6.67;;;;;;;;3557728;39;112870;-77
2021/08/08 09:31:02;;;;;;;;;6.00;6.00;;;;;;;;3561434;39;114041;-79
2021/08/08 09:33:29;;;;;;;;;7.25;7.00;;;;;;;;3558153;39;114360;-75
2021/08/08 09:35:57;;;;;;;;;13.33;12.00;;;;;;;;3558739;39;111848;-79
2021/08/08 09:38:23;;;;;;;;;14.00;12.00;;;;;;;;3554982;39;112455;-76
2021/08/08 09:40:56;;;;;;;;;14.33;13.00;;;;;;;;3556189;39;113483;-76
2021/08/08 09:43:26;;;;;;;;;25.00;22.00;;;;;;;;3558416;39;111943;-74
2021/08/08 09:45:52;;;;;;;;;20.00;19.67;;;;;;;;3558418;39;113391;-78
2021/08/08 09:48:19;;;;;;;;;12.00;10.00;;;;;;;;3558380;39;113991;-75
2021/08/08 09:50:46;;;;;;;;;15.33;15.33;;;;;;;;3560517;39;112090;-76
2021/08/08 09:53:17;;;;;;;;;9.00;9.00;;;;;;;;3558850;39;113770;-77
2021/08/08 09:55:45;;;;;;;;;19.00;19.00;;;;;;;;3557795;39;111766;-77
2021/08/08 09:58:20;;;;;;;;;11.00;10.33;;;;;;;;3559269;39;113228;-79
2021/08/08 10:00:49;;;;;;;;;18.00;17.67;;;;;;;;3552028;39;113976;-75
2021/08/08 10:03:17;;;;;;;;;7.33;7.33;;;;;;;;3547259;39;112127;-82
2021/08/08 10:05:45;;;;;;;;;26.33;26.33;;;;;;;;3549257;39;113329;-78
2021/08/08 10:08:12;;;;;;;;;17.67;15.67;;;;;;;;3546680;39;113883;-79
2021/08/08 10:10:40;;;;;;;;;9.33;9.33;;;;;;;;3547343;39;111812;-79
2021/08/08 10:13:33;;;;;;;;;16.00;15.33;;;;;;;;3551205;39;113293;-71
2021/08/08 10:16:04;;;;;;;;;6.00;5.00;;;;;;;;3524863;39;112140;-74
2021/08/08 10:18:33;;;;;;;;;18.00;17.00;;;;;;;;3548257;39;113345;-74
2021/08/08 10:21:01;;;;;;;;;21.33;21.33;;;;;;;;3547114;39;113881;-74
2021/08/08 10:23:30;;;;;;;;;23.00;22.33;;;;;;;;3548050;39;111845;-74
2021/08/08 10:25:58;;;;;;;;;12.00;10.33;;;;;;;;3547679;39;113379;-74
2021/08/08 10:28:25;;;;;;;;;23.33;23.33;;;;;;;;3546720;39;114744;-74
2021/08/08 10:30:52;;;;;;;;;31.50;29.50;;;;;;;;3547757;39;112379;-74
2021/08/08 10:33:20;;;;;;;;;28.33;26.00;;;;;;;;3548106;39;113388;-74
2021/08/08 10:35:47;;;;;;;;;29.33;27.33;;;;;;;;3547499;39;112239;-74
2021/08/08 10:38:15;;;;;;;;;23.67;20.00;;;;;;;;3543277;39;112456;-75
2021/08/08 10:40:43;;;;;;;;;32.67;28.33;;;;;;;;3546917;39;113809;-75
2021/08/08 10:43:21;;;;;;;;;30.67;28.67;;;;;;;;3548062;39;113172;-75
2021/08/08 10:45:48;;;;;;;;;27.33;25.67;;;;;;;;3547438;39;113245;-77
2021/08/08 10:48:15;;;;;;;;;31.75;30.00;;;;;;;;3548114;39;114190;-76
2021/08/08 10:50:44;;;;;;;;;25.00;24.00;;;;;;;;3546861;39;111767;-74
2021/08/08 10:53:21;;;;;;;;;25.67;25.33;;;;;;;;3546873;39;113689;-74
2021/08/08 10:55:49;;;;;;;;;32.50;30.50;;;;;;;;3549516;39;114282;-78
2021/08/08 10:58:16;;;;;;;;;10.67;10.67;;;;;;;;3548306;39;113217;-80
2021/08/08 11:00:43;;;;;;;;;20.67;20.00;;;;;;;;3547785;39;113897;-78
2021/08/08 11:03:10;;;;;;;;;18.33;17.67;;;;;;;;3546448;39;111989;-77
2021/08/08 11:05:37;;;;;;;;;30.33;26.33;;;;;;;;3551714;39;113332;-76
2021/08/08 11:08:07;;;;;;;;;13.33;13.33;;;;;;;;3548893;39;113890;-75
2021/08/08 11:10:36;;;;;;;;;22.00;21.00;;;;;;;;3547932;39;113021;-71
2021/08/08 11:13:02;;;;;;;;;20.33;16.67;;;;;;;;3548178;39;113672;-70
2021/08/08 11:15:33;;;;;;;;;9.00;9.00;;;;;;;;3547443;39;113880;-71
2021/08/08 11:18:00;;;;;;;;;6.33;6.33;;;;;;;;3550880;39;111991;-71
2021/08/08 11:20:27;;;;;;;;;22.00;20.00;;;;;;;;3547504;39;113674;-71
2021/08/08 11:22:55;;;;;;;;;9.67;9.67;;;;;;;;3547807;39;112264;-71
2021/08/08 11:25:23;;;;;;;;;4.00;4.00;;;;;;;;3548232;39;113383;-71
2021/08/08 11:27:53;;;;;;;;;14.33;14.00;;;;;;;;3548353;39;113922;-71
2021/08/08 11:30:20;;;;;;;;;19.00;17.67;;;;;;;;3549497;39;112587;-72
2021/08/08 11:32:47;;;;;;;;;20.67;20.00;;;;;;;;3548448;39;112930;-72
2021/08/08 11:35:15;;;;;;;;;18.67;18.67;;;;;;;;3549420;39;113869;-72
2021/08/08 11:37:43;;;;;;;;;13.00;13.00;;;;;;;;3548439;39;111870;-71
2021/08/08 11:40:16;;;;;;;;;22.67;22.00;;;;;;;;3550389;39;115834;-71
2021/08/08 11:42:44;;;;;;;;;17.00;15.67;;;;;;;;3548341;39;111708;-71
2021/08/08 11:45:11;;;;;;;;;19.67;19.00;;;;;;;;3548036;39;113401;-71
2021/08/08 11:47:38;;;;;;;;;14.33;14.33;;;;;;;;3549432;39;114100;-71
2021/08/08 11:50:06;;;;;;;;;17.00;17.00;;;;;;;;3548128;39;112624;-72
2021/08/08 11:52:37;;;;;;;;;19.00;17.67;;;;;;;;3548966;39;113908;-71
2021/08/08 11:55:05;;;;;;;;;16.67;14.00;;;;;;;;3548779;39;113912;-71
2021/08/08 11:57:32;;;;;;;;;22.00;19.75;;;;;;;;3548624;39;112076;-71
2021/08/08 12:00:00;;;;;;;;;15.33;14.67;;;;;;;;3548957;39;113853;-71
2021/08/08 12:02:29;;;;;;;;;14.75;14.75;;;;;;;;3551165;39;113865;-71
2021/08/08 12:04:57;;;;;;;;;18.00;16.75;;;;;;;;3547230;39;112124;-71
2021/08/08 12:07:24;;;;;;;;;17.00;17.00;;;;;;;;3548509;39;113971;-71
2021/08/08 12:09:52;;;;;;;;;13.33;12.33;;;;;;;;3548567;39;111885;-70
2021/08/08 12:12:19;;;;;;;;;14.00;14.00;;;;;;;;3549231;39;113686;-70
2021/08/08 12:14:46;;;;;;;;;16.67;16.00;;;;;;;;3547722;39;113850;-72
2021/08/08 12:17:16;;;;;;;;;16.67;15.67;;;;;;;;3549683;39;111764;-71
2021/08/08 12:19:43;;;;;;;;;17.00;14.33;;;;;;;;3548064;39;113363;-71
2021/08/08 12:22:10;;;;;;;;;14.33;14.00;;;;;;;;3546003;39;113007;-70
2021/08/08 12:24:38;;;;;;;;;18.67;16.67;;;;;;;;3550751;39;112073;-71
2021/08/08 12:27:05;;;;;;;;;6.00;6.00;;;;;;;;3547798;39;113977;-70
2021/08/08 12:29:33;;;;;;;;;17.00;16.67;;;;;;;;3549184;39;111977;-70
2021/08/08 12:32:07;;;;;;;;;18.00;17.00;;;;;;;;3548602;39;113234;-71
2021/08/08 12:34:34;;;;;;;;;16.00;14.00;;;;;;;;3553030;39;113865;-72
2021/08/08 12:37:06;;;;;;;;;15.00;14.00;;;;;;;;3548251;39;112039;-71
2021/08/08 12:39:33;;;;;;;;;18.33;17.00;;;;;;;;3549233;39;113278;-72
2021/08/08 12:42:02;;;;;;;;;16.67;16.00;;;;;;;;3547940;39;114456;-71
2021/08/08 12:44:32;;;;;;;;;14.67;14.67;;;;;;;;3551652;39;111789;-71
2021/08/08 12:47:03;;;;;;;;;19.67;17.00;;;;;;;;3545620;39;113225;-71
2021/08/08 12:49:33;;;;;;;;;16.33;15.33;;;;;;;;3548398;39;112350;-71
2021/08/08 12:52:01;;;;;;;;;15.00;15.00;;;;;;;;3548914;39;113820;-71
2021/08/08 12:54:28;;;;;;;;;9.00;8.00;;;;;;;;3546076;39;113148;-71
2021/08/08 12:56:54;;;;;;;;;16.00;14.00;;;;;;;;3548619;39;111857;-71
2021/08/08 12:59:21;;;;;;;;;16.00;16.00;;;;;;;;3548769;39;113210;-71
2021/08/08 13:01:48;;;;;;;;;14.33;13.00;;;;;;;;3547784;39;113712;-71
2021/08/08 13:04:14;;;;;;;;;11.67;11.00;;;;;;;;3549331;39;112397;-71
2021/08/08 13:06:41;;;;;;;;;11.33;11.33;;;;;;;;3550344;39;113440;-70
2021/08/08 13:09:09;;;;;;;;;16.67;16.33;;;;;;;;3549353;39;111902;-71
2021/08/08 13:11:35;;;;;;;;;13.67;13.67;;;;;;;;3548092;39;113304;-71
2021/08/08 13:14:02;;;;;;;;;15.00;15.00;;;;;;;;3549409;39;113760;-71
2021/08/08 13:16:30;;;;;;;;;14.67;13.00;;;;;;;;3549238;39;111867;-71
2021/08/08 13:18:57;;;;;;;;;14.67;14.67;;;;;;;;3548588;39;113326;-70
2021/08/08 13:21:23;;;;;;;;;17.00;16.00;;;;;;;;3547949;39;113924;-71
2021/08/08 13:23:50;;;;;;;;;19.33;18.33;;;;;;;;3548955;39;113080;-72
2021/08/08 13:26:18;;;;;;;;;15.67;14.00;;;;;;;;3547411;39;113234;-71
2021/08/08 13:28:46;;;;;;;;;15.67;12.67;;;;;;;;3551580;39;114053;-72
2021/08/08 13:31:13;;;;;;;;;14.00;14.00;;;;;;;;3547201;39;112243;-72
2021/08/08 13:33:41;;;;;;;;;16.33;14.00;;;;;;;;3549146;39;113819;-72
2021/08/08 13:36:08;;;;;;;;;18.67;17.67;;;;;;;;3547226;39;112243;-71
2021/08/08 13:38:34;;;;;;;;;18.00;17.33;;;;;;;;3547884;39;113946;-71
2021/08/08 13:41:04;;;;;;;;;14.67;13.67;;;;;;;;3548134;39;113941;-71
2021/08/08 13:43:32;;;;;;;;;16.00;14.33;;;;;;;;3545983;39;111951;-71
2021/08/08 13:45:59;;;;;;;;;14.33;12.00;;;;;;;;3547187;39;112814;-71
2021/08/08 13:48:25;;;;;;;;;14.00;14.00;;;;;;;;3548119;39;113858;-71
2021/08/08 13:50:52;;;;;;;;;17.00;14.00;;;;;;;;3552082;39;111826;-71
2021/08/08 13:53:19;;;;;;;;;14.33;14.33;;;;;;;;3548318;39;113853;-71
2021/08/08 13:55:45;;;;;;;;;12.67;12.33;;;;;;;;3547877;39;111887;-72
2021/08/08 13:58:12;;;;;;;;;13.00;11.00;;;;;;;;3549151;39;113597;-72
2021/08/08 14:00:40;;;;;;;;;12.33;10.00;;;;;;;;3547153;39;114023;-71
2021/08/08 14:03:07;;;;;;;;;7.67;7.67;;;;;;;;3551224;39;111884;-72
2021/08/08 14:05:34;;;;;;;;;11.33;11.33;;;;;;;;3547722;39;113206;-70
2021/08/08 14:08:04;;;;;;;;;13.33;12.67;;;;;;;;3547980;39;113846;-71
2021/08/08 14:10:30;;;;;;;;;9.67;9.33;;;;;;;;3547845;39;111891;-71
2021/08/08 14:12:57;;;;;;;;;13.00;12.67;;;;;;;;3550673;39;113599;-71
2021/08/08 14:15:24;;;;;;;;;13.33;13.00;;;;;;;;3548066;39;111851;-71
2021/08/08 14:17:52;;;;;;;;;6.33;6.33;;;;;;;;3548063;39;113821;-71
2021/08/08 14:20:18;;;;;;;;;12.67;12.67;;;;;;;;3548080;39;113963;-71
2021/08/08 14:22:45;;;;;;;;;8.33;6.33;;;;;;;;3547414;39;112152;-71